sensor_id;sensor_type;location;lat;lon;timestamp;pressure;altitude;pressure_sealevel;temperature;humidity
11415;BME280;5763;42.714;23.244;2023-02-18T00:01:58;95309.31;;;7.84;42.96
11415;BME280;5763;42.714;23.244;2023-02-18T00:04:24;95313.22;;;7.83;43.28
11415;BME280;5763;42.714;23.244;2023-02-18T00:06:51;95302.47;;;7.76;43.38
11415;BME280;5763;42.714;23.244;2023-02-18T00:09:18;95296.94;;;7.80;43.12
11415;BME280;5763;42.714;23.244;2023-02-18T00:11:46;95288.78;;;7.80;43.24
11415;BME280;5763;42.714;23.244;2023-02-18T00:14:14;95288.66;;;7.64;43.59
11415;BME280;5763;42.714;23.244;2023-02-18T00:16:42;95286.44;;;7.59;43.62
11415;BME280;5763;42.714;23.244;2023-02-18T00:19:11;95277.25;;;7.49;43.91
11415;BME280;5763;42.714;23.244;2023-02-18T00:21:39;95288.25;;;7.42;44.39
11415;BME280;5763;42.714;23.244;2023-02-18T00:24:06;95274.41;;;7.33;44.71
11415;BME280;5763;42.714;23.244;2023-02-18T00:26:34;95274.66;;;7.42;44.12
11415;BME280;5763;42.714;23.244;2023-02-18T00:29:02;95263.41;;;7.40;44.48
11415;BME280;5763;42.714;23.244;2023-02-18T00:31:31;95260.56;;;7.24;44.84
11415;BME280;5763;42.714;23.244;2023-02-18T00:33:59;95253.50;;;7.27;44.76
11415;BME280;5763;42.714;23.244;2023-02-18T00:36:26;95253.47;;;7.30;44.72
11415;BME280;5763;42.714;23.244;2023-02-18T00:38:55;95247.78;;;7.21;44.86
11415;BME280;5763;42.714;23.244;2023-02-18T00:41:24;95253.56;;;7.23;44.87
11415;BME280;5763;42.714;23.244;2023-02-18T00:43:51;95254.00;;;7.22;44.92
11415;BME280;5763;42.714;23.244;2023-02-18T00:46:20;95247.06;;;7.17;44.86
11415;BME280;5763;42.714;23.244;2023-02-18T00:48:47;95268.50;;;7.15;45.14
11415;BME280;5763;42.714;23.244;2023-02-18T00:51:14;95255.13;;;7.24;44.94
11415;BME280;5763;42.714;23.244;2023-02-18T00:53:40;95238.44;;;7.22;45.17
11415;BME280;5763;42.714;23.244;2023-02-18T00:56:07;95256.28;;;7.23;45.50
11415;BME280;5763;42.714;23.244;2023-02-18T00:58:35;95252.75;;;7.26;45.47
11415;BME280;5763;42.714;23.244;2023-02-18T01:01:02;95252.03;;;7.22;45.28
11415;BME280;5763;42.714;23.244;2023-02-18T01:03:30;95252.75;;;7.26;45.44
11415;BME280;5763;42.714;23.244;2023-02-18T01:05:57;95238.09;;;7.20;45.10
11415;BME280;5763;42.714;23.244;2023-02-18T01:08:23;95248.59;;;7.18;45.00
11415;BME280;5763;42.714;23.244;2023-02-18T01:10:53;95244.34;;;7.17;45.13
11415;BME280;5763;42.714;23.244;2023-02-18T01:13:21;95238.19;;;7.13;45.32
11415;BME280;5763;42.714;23.244;2023-02-18T01:15:48;95236.59;;;7.16;45.14
11415;BME280;5763;42.714;23.244;2023-02-18T01:18:15;95228.16;;;7.10;45.68
11415;BME280;5763;42.714;23.244;2023-02-18T01:20:44;95239.97;;;7.00;45.85
11415;BME280;5763;42.714;23.244;2023-02-18T01:23:12;95242.31;;;6.98;45.77
11415;BME280;5763;42.714;23.244;2023-02-18T01:25:39;95242.44;;;6.91;45.63
11415;BME280;5763;42.714;23.244;2023-02-18T01:28:07;95238.34;;;6.80;45.96
11415;BME280;5763;42.714;23.244;2023-02-18T01:30:34;95239.06;;;6.84;45.98
11415;BME280;5763;42.714;23.244;2023-02-18T01:33:01;95235.22;;;6.81;46.15
11415;BME280;5763;42.714;23.244;2023-02-18T01:35:28;95234.22;;;6.72;46.15
11415;BME280;5763;42.714;23.244;2023-02-18T01:37:56;95232.25;;;6.72;46.08
11415;BME280;5763;42.714;23.244;2023-02-18T01:40:24;95244.72;;;6.70;46.21
11415;BME280;5763;42.714;23.244;2023-02-18T01:42:52;95244.63;;;6.77;45.99
11415;BME280;5763;42.714;23.244;2023-02-18T01:45:56;95243.13;;;6.72;46.22
11415;BME280;5763;42.714;23.244;2023-02-18T01:48:28;95248.22;;;6.70;46.50
11415;BME280;5763;42.714;23.244;2023-02-18T01:50:58;95250.97;;;6.67;46.54
11415;BME280;5763;42.714;23.244;2023-02-18T01:53:32;95262.16;;;6.72;46.67
11415;BME280;5763;42.714;23.244;2023-02-18T01:56:03;95256.69;;;6.76;46.36
11415;BME280;5763;42.714;23.244;2023-02-18T01:58:32;95262.94;;;6.73;46.28
11415;BME280;5763;42.714;23.244;2023-02-18T02:00:59;95245.34;;;6.54;46.59
11415;BME280;5763;42.714;23.244;2023-02-18T02:03:26;95245.69;;;6.56;46.39
11415;BME280;5763;42.714;23.244;2023-02-18T02:05:52;95244.94;;;6.56;46.99
11415;BME280;5763;42.714;23.244;2023-02-18T02:08:19;95245.28;;;6.58;46.56
11415;BME280;5763;42.714;23.244;2023-02-18T02:11:01;95234.19;;;6.45;47.24
11415;BME280;5763;42.714;23.244;2023-02-18T02:13:42;95243.03;;;6.53;46.85
11415;BME280;5763;42.714;23.244;2023-02-18T02:16:17;95247.78;;;6.45;47.02
11415;BME280;5763;42.714;23.244;2023-02-18T02:18:56;95256.75;;;6.42;47.00
11415;BME280;5763;42.714;23.244;2023-02-18T02:21:46;95239.75;;;6.38;47.18
11415;BME280;5763;42.714;23.244;2023-02-18T02:27:23;95250.50;;;6.45;46.91
11415;BME280;5763;42.714;23.244;2023-02-18T02:30:25;95247.13;;;6.38;47.16
11415;BME280;5763;42.714;23.244;2023-02-18T02:35:53;95163.88;;;5.94;47.31
11415;BME280;5763;42.714;23.244;2023-02-18T02:38:28;95232.97;;;6.50;47.11
11415;BME280;5763;42.714;23.244;2023-02-18T02:41:04;95243.59;;;6.41;47.31
11415;BME280;5763;42.714;23.244;2023-02-18T02:43:43;95222.31;;;6.36;47.64
11415;BME280;5763;42.714;23.244;2023-02-18T02:46:17;95224.09;;;6.46;47.54
11415;BME280;5763;42.714;23.244;2023-02-18T02:48:48;95230.75;;;6.41;47.50
11415;BME280;5763;42.714;23.244;2023-02-18T02:51:24;95220.16;;;6.50;47.51
11415;BME280;5763;42.714;23.244;2023-02-18T02:53:54;95227.53;;;6.50;47.38
11415;BME280;5763;42.714;23.244;2023-02-18T02:56:22;95238.44;;;6.46;47.49
11415;BME280;5763;42.714;23.244;2023-02-18T02:58:56;95238.56;;;6.39;47.70
11415;BME280;5763;42.714;23.244;2023-02-18T03:01:33;95239.34;;;6.40;47.86
11415;BME280;5763;42.714;23.244;2023-02-18T03:04:24;95240.16;;;6.37;47.78
11415;BME280;5763;42.714;23.244;2023-02-18T03:07:10;95233.41;;;6.45;47.49
11415;BME280;5763;42.714;23.244;2023-02-18T03:09:51;95237.91;;;6.58;47.08
11415;BME280;5763;42.714;23.244;2023-02-18T03:12:26;95229.97;;;6.67;46.86
11415;BME280;5763;42.714;23.244;2023-02-18T03:14:58;95235.94;;;6.85;46.11
11415;BME280;5763;42.714;23.244;2023-02-18T03:17:29;95220.94;;;7.00;45.27
11415;BME280;5763;42.714;23.244;2023-02-18T03:20:06;95233.06;;;7.19;44.71
11415;BME280;5763;42.714;23.244;2023-02-18T03:22:38;95238.53;;;7.38;44.15
11415;BME280;5763;42.714;23.244;2023-02-18T03:25:07;95268.72;;;7.47;43.58
11415;BME280;5763;42.714;23.244;2023-02-18T03:27:39;95259.91;;;7.63;43.28
11415;BME280;5763;42.714;23.244;2023-02-18T03:30:13;95254.38;;;7.66;43.45
11415;BME280;5763;42.714;23.244;2023-02-18T03:32:41;95269.19;;;7.65;43.70
11415;BME280;5763;42.714;23.244;2023-02-18T03:35:12;95279.03;;;7.36;44.61
11415;BME280;5763;42.714;23.244;2023-02-18T03:37:43;95279.84;;;7.33;44.61
11415;BME280;5763;42.714;23.244;2023-02-18T03:40:11;95271.16;;;7.19;44.69
11415;BME280;5763;42.714;23.244;2023-02-18T03:42:38;95288.47;;;7.28;44.74
11415;BME280;5763;42.714;23.244;2023-02-18T03:45:05;95279.13;;;7.29;44.80
11415;BME280;5763;42.714;23.244;2023-02-18T03:47:32;95287.78;;;7.24;45.09
11415;BME280;5763;42.714;23.244;2023-02-18T03:49:59;95280.13;;;7.16;45.16
11415;BME280;5763;42.714;23.244;2023-02-18T03:52:26;95285.16;;;7.17;45.08
11415;BME280;5763;42.714;23.244;2023-02-18T03:54:54;95290.59;;;6.94;45.96
11415;BME280;5763;42.714;23.244;2023-02-18T03:57:21;95294.47;;;6.93;46.00
11415;BME280;5763;42.714;23.244;2023-02-18T03:59:47;95275.09;;;6.91;45.49
11415;BME280;5763;42.714;23.244;2023-02-18T04:02:14;95277.22;;;7.03;44.90
11415;BME280;5763;42.714;23.244;2023-02-18T04:04:41;95271.16;;;7.19;44.18
11415;BME280;5763;42.714;23.244;2023-02-18T04:07:08;95270.38;;;7.41;43.57
11415;BME280;5763;42.714;23.244;2023-02-18T04:09:34;95268.97;;;7.56;43.35
11415;BME280;5763;42.714;23.244;2023-02-18T04:12:03;95269.13;;;7.69;42.66
11415;BME280;5763;42.714;23.244;2023-02-18T04:14:29;95271.56;;;7.83;42.19
11415;BME280;5763;42.714;23.244;2023-02-18T04:16:56;95267.53;;;7.91;42.62
11415;BME280;5763;42.714;23.244;2023-02-18T04:19:23;95258.25;;;7.88;42.65
11415;BME280;5763;42.714;23.244;2023-02-18T04:21:49;95252.22;;;7.97;42.08
11415;BME280;5763;42.714;23.244;2023-02-18T04:24:16;95240.59;;;7.96;41.75
11415;BME280;5763;42.714;23.244;2023-02-18T04:26:43;95235.19;;;8.12;41.33
11415;BME280;5763;42.714;23.244;2023-02-18T04:29:11;95240.16;;;8.17;41.06
11415;BME280;5763;42.714;23.244;2023-02-18T04:31:38;95236.81;;;8.29;40.36
11415;BME280;5763;42.714;23.244;2023-02-18T04:34:04;95209.09;;;8.11;40.04
11415;BME280;5763;42.714;23.244;2023-02-18T04:36:32;95239.84;;;8.51;39.71
11415;BME280;5763;42.714;23.244;2023-02-18T04:38:59;95247.09;;;8.57;39.35
11415;BME280;5763;42.714;23.244;2023-02-18T04:41:26;95244.66;;;8.63;39.20
11415;BME280;5763;42.714;23.244;2023-02-18T04:43:53;95244.16;;;8.68;38.94
11415;BME280;5763;42.714;23.244;2023-02-18T04:46:21;95231.44;;;8.61;39.08
11415;BME280;5763;42.714;23.244;2023-02-18T04:48:49;95241.69;;;8.73;39.00
11415;BME280;5763;42.714;23.244;2023-02-18T04:51:15;95245.19;;;8.74;39.08
11415;BME280;5763;42.714;23.244;2023-02-18T04:53:42;95251.16;;;8.85;38.70
11415;BME280;5763;42.714;23.244;2023-02-18T04:56:09;95263.63;;;8.86;38.82
11415;BME280;5763;42.714;23.244;2023-02-18T04:58:36;95259.84;;;8.80;39.63
11415;BME280;5763;42.714;23.244;2023-02-18T05:01:03;95276.38;;;8.37;41.06
11415;BME280;5763;42.714;23.244;2023-02-18T05:03:32;95288.75;;;8.22;42.01
11415;BME280;5763;42.714;23.244;2023-02-18T05:05:59;95284.88;;;8.00;42.41
11415;BME280;5763;42.714;23.244;2023-02-18T05:08:25;95284.59;;;7.95;42.85
11415;BME280;5763;42.714;23.244;2023-02-18T05:10:52;95283.03;;;7.74;43.52
11415;BME280;5763;42.714;23.244;2023-02-18T05:13:19;95265.19;;;7.50;44.03
11415;BME280;5763;42.714;23.244;2023-02-18T05:15:47;95274.88;;;7.51;44.11
11415;BME280;5763;42.714;23.244;2023-02-18T05:18:13;95261.44;;;7.41;44.56
11415;BME280;5763;42.714;23.244;2023-02-18T05:20:42;95249.56;;;7.31;45.28
11415;BME280;5763;42.714;23.244;2023-02-18T05:23:09;95267.91;;;7.50;44.95
11415;BME280;5763;42.714;23.244;2023-02-18T05:25:36;95259.84;;;7.43;44.82
11415;BME280;5763;42.714;23.244;2023-02-18T05:28:03;95276.75;;;7.54;44.73
11415;BME280;5763;42.714;23.244;2023-02-18T05:30:29;95263.22;;;7.51;45.07
11415;BME280;5763;42.714;23.244;2023-02-18T05:32:56;95255.72;;;7.35;45.17
11415;BME280;5763;42.714;23.244;2023-02-18T05:35:23;95264.13;;;7.21;45.52
11415;BME280;5763;42.714;23.244;2023-02-18T05:37:51;95267.06;;;7.07;45.89
11415;BME280;5763;42.714;23.244;2023-02-18T05:40:18;95269.03;;;7.07;46.58
11415;BME280;5763;42.714;23.244;2023-02-18T05:42:45;95257.53;;;6.96;46.74
11415;BME280;5763;42.714;23.244;2023-02-18T05:45:12;95259.56;;;6.88;46.74
11415;BME280;5763;42.714;23.244;2023-02-18T05:47:38;95263.75;;;6.96;46.12
11415;BME280;5763;42.714;23.244;2023-02-18T05:50:06;95257.03;;;7.04;46.51
11415;BME280;5763;42.714;23.244;2023-02-18T05:52:34;95277.00;;;7.17;45.85
11415;BME280;5763;42.714;23.244;2023-02-18T05:55:02;95290.03;;;7.29;46.23
11415;BME280;5763;42.714;23.244;2023-02-18T05:57:29;95293.00;;;7.38;46.07
11415;BME280;5763;42.714;23.244;2023-02-18T05:59:56;95292.16;;;7.41;46.17
11415;BME280;5763;42.714;23.244;2023-02-18T06:02:23;95287.13;;;7.40;46.45
11415;BME280;5763;42.714;23.244;2023-02-18T06:04:49;95280.44;;;7.44;46.53
11415;BME280;5763;42.714;23.244;2023-02-18T06:07:16;95277.94;;;7.53;46.36
11415;BME280;5763;42.714;23.244;2023-02-18T06:09:45;95272.69;;;7.66;46.00
11415;BME280;5763;42.714;23.244;2023-02-18T06:12:13;95267.53;;;7.71;45.71
11415;BME280;5763;42.714;23.244;2023-02-18T06:14:40;95274.56;;;7.69;45.56
11415;BME280;5763;42.714;23.244;2023-02-18T06:17:07;95286.75;;;7.84;45.36
11415;BME280;5763;42.714;23.244;2023-02-18T06:19:34;95293.81;;;7.81;45.90
11415;BME280;5763;42.714;23.244;2023-02-18T06:22:00;95286.53;;;7.75;45.76
11415;BME280;5763;42.714;23.244;2023-02-18T06:24:27;95280.38;;;7.90;45.67
11415;BME280;5763;42.714;23.244;2023-02-18T06:26:54;95267.06;;;7.96;45.83
11415;BME280;5763;42.714;23.244;2023-02-18T06:29:22;95268.59;;;7.97;45.34
11415;BME280;5763;42.714;23.244;2023-02-18T06:31:49;95265.31;;;8.05;45.54
11415;BME280;5763;42.714;23.244;2023-02-18T06:34:16;95256.22;;;8.12;45.64
11415;BME280;5763;42.714;23.244;2023-02-18T06:36:43;95265.59;;;8.11;45.41
11415;BME280;5763;42.714;23.244;2023-02-18T06:39:09;95255.72;;;8.17;45.25
11415;BME280;5763;42.714;23.244;2023-02-18T06:41:36;95272.88;;;8.17;45.04
11415;BME280;5763;42.714;23.244;2023-02-18T06:44:03;95270.47;;;8.19;45.04
11415;BME280;5763;42.714;23.244;2023-02-18T06:46:32;95271.84;;;8.31;44.95
11415;BME280;5763;42.714;23.244;2023-02-18T06:48:59;95262.31;;;8.39;45.58
11415;BME280;5763;42.714;23.244;2023-02-18T06:51:26;95269.16;;;8.47;45.32
11415;BME280;5763;42.714;23.244;2023-02-18T06:53:53;95257.97;;;8.41;45.69
11415;BME280;5763;42.714;23.244;2023-02-18T06:56:20;95263.72;;;8.47;46.31
11415;BME280;5763;42.714;23.244;2023-02-18T06:58:47;95256.03;;;8.42;45.32
11415;BME280;5763;42.714;23.244;2023-02-18T07:01:13;95261.41;;;8.45;45.82
11415;BME280;5763;42.714;23.244;2023-02-18T07:03:41;95259.69;;;8.51;45.42
11415;BME280;5763;42.714;23.244;2023-02-18T07:06:08;95264.66;;;8.56;45.00
11415;BME280;5763;42.714;23.244;2023-02-18T07:08:35;95262.91;;;8.66;44.72
11415;BME280;5763;42.714;23.244;2023-02-18T07:11:03;95216.56;;;8.46;44.95
11415;BME280;5763;42.714;23.244;2023-02-18T07:13:30;95262.53;;;8.83;44.82
11415;BME280;5763;42.714;23.244;2023-02-18T07:15:57;95248.50;;;8.81;44.86
11415;BME280;5763;42.714;23.244;2023-02-18T07:18:24;95251.44;;;8.90;44.63
11415;BME280;5763;42.714;23.244;2023-02-18T07:20:52;95250.75;;;9.02;44.40
11415;BME280;5763;42.714;23.244;2023-02-18T07:23:19;95253.16;;;9.00;44.40
11415;BME280;5763;42.714;23.244;2023-02-18T07:25:45;95253.91;;;9.01;44.51
11415;BME280;5763;42.714;23.244;2023-02-18T07:28:12;95248.03;;;9.02;44.30
11415;BME280;5763;42.714;23.244;2023-02-18T07:30:39;95253.66;;;9.11;44.47
11415;BME280;5763;42.714;23.244;2023-02-18T07:33:06;95260.56;;;9.16;43.88
11415;BME280;5763;42.714;23.244;2023-02-18T07:35:33;95270.22;;;9.36;43.75
11415;BME280;5763;42.714;23.244;2023-02-18T07:38:01;95264.44;;;9.34;43.87
11415;BME280;5763;42.714;23.244;2023-02-18T07:40:28;95257.38;;;9.49;43.32
11415;BME280;5763;42.714;23.244;2023-02-18T07:42:55;95267.31;;;9.43;42.99
11415;BME280;5763;42.714;23.244;2023-02-18T07:45:21;95269.69;;;9.41;43.13
11415;BME280;5763;42.714;23.244;2023-02-18T07:47:48;95269.19;;;9.46;43.00
11415;BME280;5763;42.714;23.244;2023-02-18T07:50:15;95261.75;;;9.47;43.16
11415;BME280;5763;42.714;23.244;2023-02-18T07:52:42;95264.66;;;9.56;43.62
11415;BME280;5763;42.714;23.244;2023-02-18T07:55:11;95268.22;;;9.69;43.35
11415;BME280;5763;42.714;23.244;2023-02-18T07:57:37;95262.38;;;9.83;43.07
11415;BME280;5763;42.714;23.244;2023-02-18T08:00:22;95256.72;;;9.90;42.92
11415;BME280;5763;42.714;23.244;2023-02-18T08:02:49;95263.78;;;10.03;42.56
11415;BME280;5763;42.714;23.244;2023-02-18T08:05:15;95260.88;;;10.10;42.54
11415;BME280;5763;42.714;23.244;2023-02-18T08:07:42;95262.00;;;10.25;42.30
11415;BME280;5763;42.714;23.244;2023-02-18T08:10:12;95259.22;;;10.41;42.02
11415;BME280;5763;42.714;23.244;2023-02-18T08:12:39;95252.13;;;10.56;41.36
11415;BME280;5763;42.714;23.244;2023-02-18T08:15:06;95254.03;;;10.72;41.40
11415;BME280;5763;42.714;23.244;2023-02-18T08:17:33;95265.09;;;10.93;41.31
11415;BME280;5763;42.714;23.244;2023-02-18T08:20:00;95260.72;;;10.96;41.10
11415;BME280;5763;42.714;23.244;2023-02-18T08:22:26;95251.63;;;10.86;40.98
11415;BME280;5763;42.714;23.244;2023-02-18T08:24:53;95246.69;;;10.81;41.45
11415;BME280;5763;42.714;23.244;2023-02-18T08:27:22;95242.31;;;10.96;40.76
11415;BME280;5763;42.714;23.244;2023-02-18T08:29:49;95247.66;;;11.12;40.27
11415;BME280;5763;42.714;23.244;2023-02-18T08:32:16;95248.00;;;11.14;40.47
11415;BME280;5763;42.714;23.244;2023-02-18T08:34:43;95246.25;;;11.20;40.02
11415;BME280;5763;42.714;23.244;2023-02-18T08:37:09;95242.72;;;11.20;40.21
11415;BME280;5763;42.714;23.244;2023-02-18T08:39:37;95243.72;;;11.13;40.67
11415;BME280;5763;42.714;23.244;2023-02-18T08:42:04;95238.19;;;11.38;40.14
11415;BME280;5763;42.714;23.244;2023-02-18T08:44:32;95241.03;;;11.60;39.60
11415;BME280;5763;42.714;23.244;2023-02-18T08:46:59;95234.44;;;11.70;39.56
11415;BME280;5763;42.714;23.244;2023-02-18T08:49:26;95239.53;;;11.93;39.27
11415;BME280;5763;42.714;23.244;2023-02-18T08:51:53;95239.78;;;12.07;39.17
11415;BME280;5763;42.714;23.244;2023-02-18T08:54:20;95246.81;;;12.08;39.42
11415;BME280;5763;42.714;23.244;2023-02-18T08:56:46;95241.91;;;12.25;38.92
11415;BME280;5763;42.714;23.244;2023-02-18T08:59:13;95254.28;;;12.29;39.03
11415;BME280;5763;42.714;23.244;2023-02-18T09:01:41;95235.41;;;12.31;38.99
11415;BME280;5763;42.714;23.244;2023-02-18T09:04:08;95233.59;;;12.37;38.88
11415;BME280;5763;42.714;23.244;2023-02-18T09:06:36;95238.03;;;12.65;38.84
11415;BME280;5763;42.714;23.244;2023-02-18T09:09:03;95235.84;;;12.82;38.21
11415;BME280;5763;42.714;23.244;2023-02-18T09:11:31;95237.06;;;12.90;37.78
11415;BME280;5763;42.714;23.244;2023-02-18T09:13:57;95222.66;;;12.98;38.18
11415;BME280;5763;42.714;23.244;2023-02-18T09:16:24;95225.63;;;13.13;37.68
11415;BME280;5763;42.714;23.244;2023-02-18T09:18:54;95234.69;;;13.31;37.01
11415;BME280;5763;42.714;23.244;2023-02-18T09:21:21;95235.06;;;13.78;35.51
11415;BME280;5763;42.714;23.244;2023-02-18T09:23:49;95230.53;;;14.29;35.17
11415;BME280;5763;42.714;23.244;2023-02-18T09:26:18;95217.28;;;14.78;34.50
11415;BME280;5763;42.714;23.244;2023-02-18T09:28:47;95218.06;;;15.11;32.54
11415;BME280;5763;42.714;23.244;2023-02-18T09:31:17;95222.69;;;15.47;32.06
11415;BME280;5763;42.714;23.244;2023-02-18T09:33:46;95213.59;;;15.79;31.46
11415;BME280;5763;42.714;23.244;2023-02-18T09:36:15;95233.31;;;15.86;31.33
11415;BME280;5763;42.714;23.244;2023-02-18T09:38:41;95214.16;;;16.44;31.17
11415;BME280;5763;42.714;23.244;2023-02-18T09:41:14;95212.94;;;17.03;30.42
11415;BME280;5763;42.714;23.244;2023-02-18T09:43:46;95217.56;;;17.41;28.65
11415;BME280;5763;42.714;23.244;2023-02-18T09:46:18;95220.38;;;17.81;28.00
11415;BME280;5763;42.714;23.244;2023-02-18T09:48:46;95223.34;;;18.17;27.33
11415;BME280;5763;42.714;23.244;2023-02-18T09:51:15;95221.00;;;18.76;27.07
11415;BME280;5763;42.714;23.244;2023-02-18T09:53:43;95208.44;;;19.12;26.26
11415;BME280;5763;42.714;23.244;2023-02-18T09:56:13;95197.94;;;18.65;26.11
11415;BME280;5763;42.714;23.244;2023-02-18T09:58:41;95198.84;;;18.31;25.66
11415;BME280;5763;42.714;23.244;2023-02-18T10:01:15;95200.81;;;18.76;25.02
11415;BME280;5763;42.714;23.244;2023-02-18T10:03:46;95197.56;;;19.34;24.71
11415;BME280;5763;42.714;23.244;2023-02-18T10:06:19;95195.81;;;19.42;23.92
11415;BME280;5763;42.714;23.244;2023-02-18T10:08:49;95169.44;;;19.63;22.91
11415;BME280;5763;42.714;23.244;2023-02-18T10:11:21;95189.50;;;19.83;21.87
11415;BME280;5763;42.714;23.244;2023-02-18T10:13:49;95185.63;;;19.64;20.80
11415;BME280;5763;42.714;23.244;2023-02-18T10:16:19;95184.41;;;19.76;20.67
11415;BME280;5763;42.714;23.244;2023-02-18T10:18:48;95188.00;;;19.82;20.88
11415;BME280;5763;42.714;23.244;2023-02-18T10:21:20;95185.75;;;19.92;21.54
11415;BME280;5763;42.714;23.244;2023-02-18T10:23:54;95181.75;;;20.04;20.88
11415;BME280;5763;42.714;23.244;2023-02-18T10:26:23;95185.16;;;20.24;21.09
11415;BME280;5763;42.714;23.244;2023-02-18T10:28:50;95183.75;;;20.62;20.46
11415;BME280;5763;42.714;23.244;2023-02-18T10:31:21;95178.19;;;20.73;20.29
11415;BME280;5763;42.714;23.244;2023-02-18T10:33:56;95173.09;;;20.49;19.90
11415;BME280;5763;42.714;23.244;2023-02-18T10:36:29;95175.19;;;19.96;20.29
11415;BME280;5763;42.714;23.244;2023-02-18T10:39:08;95174.41;;;19.90;20.48
11415;BME280;5763;42.714;23.244;2023-02-18T10:41:45;95163.06;;;19.99;20.58
11415;BME280;5763;42.714;23.244;2023-02-18T10:44:22;95160.41;;;20.21;20.81
11415;BME280;5763;42.714;23.244;2023-02-18T10:46:56;95149.09;;;20.52;20.57
11415;BME280;5763;42.714;23.244;2023-02-18T10:49:40;95158.22;;;20.74;20.23
11415;BME280;5763;42.714;23.244;2023-02-18T10:52:15;95150.13;;;20.87;20.30
11415;BME280;5763;42.714;23.244;2023-02-18T10:54:51;95154.88;;;20.43;19.93
11415;BME280;5763;42.714;23.244;2023-02-18T10:57:20;95152.94;;;19.96;20.45
11415;BME280;5763;42.714;23.244;2023-02-18T10:59:55;95148.63;;;19.36;21.12
11415;BME280;5763;42.714;23.244;2023-02-18T11:02:24;95141.28;;;18.71;21.49
11415;BME280;5763;42.714;23.244;2023-02-18T11:04:51;95145.16;;;18.54;22.30
11415;BME280;5763;42.714;23.244;2023-02-18T11:07:22;95146.41;;;18.53;22.47
11415;BME280;5763;42.714;23.244;2023-02-18T11:09:52;95135.16;;;18.93;23.00
11415;BME280;5763;42.714;23.244;2023-02-18T11:12:22;95131.13;;;18.94;22.90
11415;BME280;5763;42.714;23.244;2023-02-18T11:15:06;95131.69;;;18.67;23.13
11415;BME280;5763;42.714;23.244;2023-02-18T11:17:43;95125.66;;;18.43;23.21
11415;BME280;5763;42.714;23.244;2023-02-18T11:20:22;95126.97;;;18.27;23.41
11415;BME280;5763;42.714;23.244;2023-02-18T11:22:50;95123.88;;;18.19;23.16
11415;BME280;5763;42.714;23.244;2023-02-18T11:25:23;95117.50;;;18.34;23.46
11415;BME280;5763;42.714;23.244;2023-02-18T11:27:51;95111.31;;;18.44;23.49
11415;BME280;5763;42.714;23.244;2023-02-18T11:30:23;95111.81;;;18.74;23.11
11415;BME280;5763;42.714;23.244;2023-02-18T11:32:53;95102.31;;;18.86;22.52
11415;BME280;5763;42.714;23.244;2023-02-18T11:35:24;95090.81;;;19.35;22.29
11415;BME280;5763;42.714;23.244;2023-02-18T11:37:53;95082.38;;;19.71;22.64
11415;BME280;5763;42.714;23.244;2023-02-18T11:40:24;95085.44;;;19.73;22.04
11415;BME280;5763;42.714;23.244;2023-02-18T11:43:04;95087.75;;;19.86;21.73
11415;BME280;5763;42.714;23.244;2023-02-18T11:45:33;95092.16;;;20.20;21.30
11415;BME280;5763;42.714;23.244;2023-02-18T11:48:02;95084.38;;;20.46;20.98
11415;BME280;5763;42.714;23.244;2023-02-18T11:50:33;95078.81;;;20.40;21.30
11415;BME280;5763;42.714;23.244;2023-02-18T11:53:25;95073.00;;;20.55;21.39
11415;BME280;5763;42.714;23.244;2023-02-18T11:55:53;95062.88;;;20.79;21.33
11415;BME280;5763;42.714;23.244;2023-02-18T11:58:21;95054.53;;;20.96;21.09
11415;BME280;5763;42.714;23.244;2023-02-18T12:00:49;95051.72;;;21.18;21.35
11415;BME280;5763;42.714;23.244;2023-02-18T12:03:29;95037.78;;;21.23;21.16
11415;BME280;5763;42.714;23.244;2023-02-18T12:05:57;95043.84;;;21.22;21.08
11415;BME280;5763;42.714;23.244;2023-02-18T12:08:30;95050.94;;;21.23;20.95
11415;BME280;5763;42.714;23.244;2023-02-18T12:11:01;95051.63;;;21.45;20.43
11415;BME280;5763;42.714;23.244;2023-02-18T12:13:33;95042.47;;;21.50;20.60
11415;BME280;5763;42.714;23.244;2023-02-18T12:16:09;95048.47;;;21.03;20.68
11415;BME280;5763;42.714;23.244;2023-02-18T12:18:50;95035.34;;;20.48;21.64
11415;BME280;5763;42.714;23.244;2023-02-18T12:21:32;95037.09;;;20.29;21.94
11415;BME280;5763;42.714;23.244;2023-02-18T12:24:13;95042.41;;;20.38;21.98
11415;BME280;5763;42.714;23.244;2023-02-18T12:26:48;95026.22;;;20.26;22.03
11415;BME280;5763;42.714;23.244;2023-02-18T12:29:32;95020.66;;;20.20;22.30
11415;BME280;5763;42.714;23.244;2023-02-18T12:32:14;95035.56;;;20.45;21.81
11415;BME280;5763;42.714;23.244;2023-02-18T12:34:56;95015.09;;;20.59;21.69
11415;BME280;5763;42.714;23.244;2023-02-18T12:37:56;95007.75;;;20.45;21.81
11415;BME280;5763;42.714;23.244;2023-02-18T12:40:44;95014.09;;;20.29;22.10
11415;BME280;5763;42.714;23.244;2023-02-18T12:43:21;95001.88;;;19.88;22.25
11415;BME280;5763;42.714;23.244;2023-02-18T12:46:13;94998.13;;;19.91;22.49
11415;BME280;5763;42.714;23.244;2023-02-18T12:48:51;94998.09;;;19.85;22.69
11415;BME280;5763;42.714;23.244;2023-02-18T12:51:32;94999.66;;;20.14;22.69
11415;BME280;5763;42.714;23.244;2023-02-18T12:54:27;94992.34;;;20.44;22.04
11415;BME280;5763;42.714;23.244;2023-02-18T12:57:23;94984.75;;;20.72;21.83
11415;BME280;5763;42.714;23.244;2023-02-18T13:00:15;94997.88;;;20.99;21.70
11415;BME280;5763;42.714;23.244;2023-02-18T13:03:09;94994.19;;;21.37;21.20
11415;BME280;5763;42.714;23.244;2023-02-18T13:05:50;94988.53;;;21.53;20.82
11415;BME280;5763;42.714;23.244;2023-02-18T13:08:30;94992.38;;;21.45;20.86
11415;BME280;5763;42.714;23.244;2023-02-18T13:11:13;94992.50;;;21.23;21.51
11415;BME280;5763;42.714;23.244;2023-02-18T13:13:54;94990.66;;;21.31;22.32
11415;BME280;5763;42.714;23.244;2023-02-18T13:16:25;94984.88;;;21.29;22.69
11415;BME280;5763;42.714;23.244;2023-02-18T13:18:59;94991.75;;;21.06;23.16
11415;BME280;5763;42.714;23.244;2023-02-18T13:21:27;94997.59;;;20.97;23.41
11415;BME280;5763;42.714;23.244;2023-02-18T13:23:57;95003.72;;;20.68;23.88
11415;BME280;5763;42.714;23.244;2023-02-18T13:26:26;94996.38;;;20.37;24.07
11415;BME280;5763;42.714;23.244;2023-02-18T13:29:06;94997.09;;;19.94;24.60
11415;BME280;5763;42.714;23.244;2023-02-18T13:31:43;94996.28;;;19.66;24.77